createdAt,value
2019-02-05T00:00:21.300Z,1006.48
2019-02-05T00:01:21.294Z,1006.53
2019-02-05T00:02:21.285Z,1006.49
2019-02-05T00:03:21.296Z,1006.47
2019-02-05T00:04:21.279Z,1006.44
2019-02-05T00:05:21.249Z,1006.42
2019-02-05T00:06:21.235Z,1006.43
2019-02-05T00:07:21.223Z,1006.39
2019-02-05T00:08:21.213Z,1006.29
2019-02-05T00:09:21.237Z,1006.33
2019-02-05T00:10:21.194Z,1006.26
2019-02-05T00:11:21.201Z,1006.28
2019-02-05T00:12:21.169Z,1006.31
2019-02-05T00:13:21.159Z,1006.27
2019-02-05T00:14:21.145Z,1006.26
2019-02-05T00:15:21.140Z,1006.22
2019-02-05T00:16:21.143Z,1006.20
2019-02-05T00:17:21.115Z,1006.24
2019-02-05T00:18:21.102Z,1006.21
2019-02-05T00:19:21.091Z,1006.18
2019-02-05T00:20:21.106Z,1006.11
2019-02-05T00:21:21.072Z,1006.13
2019-02-05T00:22:21.065Z,1006.15
2019-02-05T00:23:21.047Z,1006.15
2019-02-05T00:24:21.054Z,1006.16
2019-02-05T00:25:21.043Z,1006.20
2019-02-05T00:26:21.014Z,1006.20
2019-02-05T00:27:21.018Z,1006.19
2019-02-05T00:28:21.026Z,1006.21
2019-02-05T00:29:20.981Z,1006.20
2019-02-05T00:30:20.970Z,1006.19
2019-02-05T00:31:20.961Z,1006.22
2019-02-05T00:32:20.948Z,1006.21
2019-02-05T00:33:20.975Z,1006.21
2019-02-05T00:34:20.934Z,1006.24
2019-02-05T00:35:20.917Z,1006.15
2019-02-05T00:36:20.905Z,1006.13
2019-02-05T00:37:20.918Z,1006.18
2019-02-05T00:38:20.881Z,1006.16
2019-02-05T00:39:20.877Z,1006.19
2019-02-05T00:40:20.877Z,1006.14
2019-02-05T00:41:20.849Z,1006.18
2019-02-05T00:42:20.878Z,1006.16
2019-02-05T00:43:20.837Z,1006.18
2019-02-05T00:44:20.816Z,1006.13
2019-02-05T00:45:20.815Z,1006.15
2019-02-05T00:46:20.795Z,1006.08
2019-02-05T00:47:20.808Z,1006.16
2019-02-05T00:48:20.777Z,1006.21
2019-02-05T00:49:20.760Z,1006.19
2019-02-05T00:50:20.817Z,1006.18
2019-02-05T00:51:20.762Z,1006.17
2019-02-05T00:52:20.729Z,1006.14
2019-02-05T00:53:20.717Z,1006.14
2019-02-05T00:54:20.705Z,1006.17
2019-02-05T00:55:20.730Z,1006.12
2019-02-05T00:56:20.688Z,1006.10
2019-02-05T00:57:20.683Z,1006.14
2019-02-05T00:58:20.685Z,1006.08
2019-02-05T00:59:20.652Z,1006.12
2019-02-05T01:00:20.665Z,1006.05
2019-02-05T01:01:20.628Z,1006.03
2019-02-05T01:02:20.619Z,1006.04
2019-02-05T01:03:20.615Z,1006.01
2019-02-05T01:04:20.603Z,1005.92
2019-02-05T01:05:20.611Z,1005.93
2019-02-05T01:06:20.575Z,1005.94
2019-02-05T01:07:20.563Z,1006.03
2019-02-05T01:08:20.552Z,1006.07
2019-02-05T01:09:20.540Z,1006.10
2019-02-05T01:10:20.566Z,1006.12
2019-02-05T01:11:20.518Z,1006.08
2019-02-05T01:12:20.531Z,1006.07
2019-02-05T01:13:20.496Z,1006.07
2019-02-05T01:14:20.486Z,1006.06
2019-02-05T01:15:20.476Z,1006.02
2019-02-05T01:16:20.503Z,1006.09
2019-02-05T01:17:20.452Z,1006.04
2019-02-05T01:18:20.444Z,1005.99
2019-02-05T01:19:20.431Z,1005.94
2019-02-05T01:20:20.419Z,1005.90
2019-02-05T01:21:20.435Z,1005.91
2019-02-05T01:22:20.412Z,1005.87
2019-02-05T01:23:20.387Z,1005.89
2019-02-05T01:24:20.401Z,1005.86
2019-02-05T01:25:20.386Z,1005.85
2019-02-05T01:26:28.849Z,1005.90
2019-02-05T01:27:21.341Z,1005.91
2019-02-05T01:28:20.334Z,1005.96
2019-02-05T01:29:20.321Z,1006.01
2019-02-05T01:30:20.365Z,1006.00
2019-02-05T01:31:20.299Z,1006.05
2019-02-05T01:32:20.295Z,1006.03
2019-02-05T01:33:20.302Z,1005.99
2019-02-05T01:34:20.269Z,1006.01
2019-02-05T01:35:20.258Z,1006.01
2019-02-05T01:36:20.245Z,1006.06
2019-02-05T01:37:20.247Z,1006.08
2019-02-05T01:38:20.245Z,1006.13
2019-02-05T01:39:20.216Z,1006.13
2019-02-05T01:40:20.203Z,1006.15
2019-02-05T01:41:20.214Z,1006.19
2019-02-05T01:42:20.178Z,1006.21
2019-02-05T01:43:20.172Z,1006.24
2019-02-05T01:44:20.158Z,1006.24
2019-02-05T01:45:20.167Z,1006.20
2019-02-05T01:46:20.134Z,1006.16
2019-02-05T01:47:20.148Z,1006.17
2019-02-05T01:48:20.135Z,1006.14
2019-02-05T01:49:20.105Z,1006.21
2019-02-05T01:50:20.092Z,1006.12
2019-02-05T01:51:20.106Z,1006.19
2019-02-05T01:52:20.070Z,1006.15
2019-02-05T01:53:20.059Z,1006.16
2019-02-05T01:54:20.052Z,1006.16
2019-02-05T01:55:20.072Z,1006.14
2019-02-05T01:56:20.030Z,1006.09
2019-02-05T01:57:20.013Z,1006.09
2019-02-05T01:58:20.007Z,1006.07
2019-02-05T01:59:19.993Z,1006.06
2019-02-05T02:00:20.007Z,1006.07
2019-02-05T02:01:19.976Z,1006.07
2019-02-05T02:02:19.961Z,1006.05
2019-02-05T02:03:19.996Z,1006.01
2019-02-05T02:04:19.938Z,1006.03
2019-02-05T02:05:19.926Z,1006.00
2019-02-05T02:06:19.918Z,1006.03
2019-02-05T02:07:19.924Z,1006.02
2019-02-05T02:08:19.920Z,1006.01
2019-02-05T02:09:19.882Z,1005.97
2019-02-05T02:10:19.872Z,1006.01
2019-02-05T02:11:19.860Z,1006.01
2019-02-05T02:12:19.877Z,1006.02
2019-02-05T02:13:19.860Z,1006.05
2019-02-05T02:14:19.860Z,1006.05
2019-02-05T02:15:19.818Z,1006.05
2019-02-05T02:16:19.805Z,1006.04
2019-02-05T02:17:19.795Z,1006.01
2019-02-05T02:18:19.785Z,1006.02
2019-02-05T02:19:19.802Z,1006.04
2019-02-05T02:20:19.761Z,1005.96
2019-02-05T02:21:19.750Z,1005.97
2019-02-05T02:22:19.740Z,1005.95
2019-02-05T02:23:19.733Z,1005.97
2019-02-05T02:24:19.733Z,1005.94
2019-02-05T02:25:19.714Z,1005.89
2019-02-05T02:26:19.727Z,1005.86
2019-02-05T02:27:19.690Z,1005.92
2019-02-05T02:28:19.673Z,1005.87
2019-02-05T02:29:19.663Z,1005.93
2019-02-05T02:30:19.654Z,1005.93
2019-02-05T02:31:19.683Z,1005.93
2019-02-05T02:32:19.631Z,1005.93
2019-02-05T02:33:19.645Z,1005.86
2019-02-05T02:34:19.611Z,1005.86
2019-02-05T02:35:19.600Z,1005.85
2019-02-05T02:36:19.616Z,1005.81
2019-02-05T02:37:19.587Z,1005.83
2019-02-05T02:38:19.565Z,1005.81
2019-02-05T02:39:19.553Z,1005.87
2019-02-05T02:40:19.543Z,1005.88
2019-02-05T02:41:19.554Z,1005.90
2019-02-05T02:42:19.522Z,1005.85
2019-02-05T02:43:19.529Z,1005.87
2019-02-05T02:44:19.499Z,1005.86
2019-02-05T02:45:19.492Z,1005.91
2019-02-05T02:46:19.507Z,1005.97
2019-02-05T02:47:19.466Z,1005.94
2019-02-05T02:48:19.458Z,1005.94
2019-02-05T02:49:19.457Z,1005.96
2019-02-05T02:50:19.438Z,1005.98
2019-02-05T02:51:19.451Z,1005.93
2019-02-05T02:52:19.441Z,1006.01
2019-02-05T02:53:19.403Z,1006.01
2019-02-05T02:54:19.396Z,1006.06
2019-02-05T02:55:19.387Z,1006.03
2019-02-05T02:56:19.410Z,1006.07
2019-02-05T02:57:19.357Z,1006.07
2019-02-05T02:58:19.347Z,1006.16
2019-02-05T02:59:19.335Z,1006.17
2019-02-05T03:00:19.355Z,1006.16
2019-02-05T03:01:19.442Z,1006.14
2019-02-05T03:02:19.306Z,1006.08
2019-02-05T03:03:19.296Z,1006.05
2019-02-05T03:04:19.309Z,1006.07
2019-02-05T03:05:19.268Z,1006.06
2019-02-05T03:06:19.264Z,1006.08
2019-02-05T03:07:19.274Z,1006.09
2019-02-05T03:08:19.246Z,1006.18
2019-02-05T03:09:19.344Z,1006.17
2019-02-05T03:10:19.215Z,1006.21
2019-02-05T03:11:19.232Z,1006.20
2019-02-05T03:12:19.199Z,1006.28
2019-02-05T03:13:19.181Z,1006.21
2019-02-05T03:14:19.179Z,1006.20
2019-02-05T03:15:19.161Z,1006.26
2019-02-05T03:16:19.177Z,1006.27
2019-02-05T03:17:19.137Z,1006.32
2019-02-05T03:18:19.133Z,1006.33
2019-02-05T03:19:19.116Z,1006.29
2019-02-05T03:20:19.147Z,1006.27
2019-02-05T03:21:19.096Z,1006.22
2019-02-05T03:22:19.082Z,1006.13
2019-02-05T03:23:19.075Z,1006.13
2019-02-05T03:24:19.061Z,1006.16
2019-02-05T03:25:19.089Z,1006.10
2019-02-05T03:26:19.043Z,1006.16
2019-02-05T03:27:19.031Z,1006.19
2019-02-05T03:28:19.019Z,1006.15
2019-02-05T03:29:19.007Z,1006.06
2019-02-05T03:30:19.030Z,1006.12
2019-02-05T03:31:18.988Z,1006.14
2019-02-05T03:32:18.977Z,1006.17
2019-02-05T03:33:18.972Z,1006.11
2019-02-05T03:34:18.980Z,1006.14
2019-02-05T03:35:18.975Z,1006.17
2019-02-05T03:36:18.962Z,1006.18
2019-02-05T03:37:18.917Z,1006.15
2019-02-05T03:38:18.906Z,1006.15
2019-02-05T03:39:18.898Z,1006.13
2019-02-05T03:40:18.887Z,1006.13
2019-02-05T03:41:18.899Z,1006.13
2019-02-05T03:42:18.874Z,1006.11
2019-02-05T03:43:18.853Z,1006.12
2019-02-05T03:44:18.840Z,1006.12
2019-02-05T03:45:18.847Z,1006.15
2019-02-05T03:46:18.852Z,1006.15
2019-02-05T03:47:18.809Z,1006.17
2019-02-05T03:48:18.808Z,1006.14
2019-02-05T03:49:18.810Z,1006.17
2019-02-05T03:50:18.779Z,1006.23
2019-02-05T03:51:18.794Z,1006.14
2019-02-05T03:52:18.756Z,1006.14
2019-02-05T03:53:18.750Z,1006.12
2019-02-05T03:54:18.737Z,1006.17
2019-02-05T03:55:18.719Z,1006.13
2019-02-05T03:56:18.735Z,1006.12
2019-02-05T03:57:30.403Z,1006.11
2019-02-05T03:58:19.689Z,1006.12
2019-02-05T03:59:18.679Z,1006.13
2019-02-05T04:00:18.677Z,1006.15
2019-02-05T04:01:18.682Z,1006.14
2019-02-05T04:02:18.675Z,1006.16
2019-02-05T04:03:18.632Z,1006.14
2019-02-05T04:04:18.624Z,1006.15
2019-02-05T04:05:18.618Z,1006.18
2019-02-05T04:06:18.609Z,1006.13
2019-02-05T04:07:18.614Z,1006.12
2019-02-05T04:08:18.582Z,1006.10
2019-02-05T04:09:18.606Z,1006.09
2019-02-05T04:10:18.554Z,1006.08
2019-02-05T04:11:18.546Z,1006.09
2019-02-05T04:12:18.544Z,1006.09
2019-02-05T04:13:18.526Z,1006.01
2019-02-05T04:14:18.547Z,1006.02
2019-02-05T04:15:18.501Z,1006.05
2019-02-05T04:16:18.493Z,1006.07
2019-02-05T04:17:18.485Z,1006.08
2019-02-05T04:18:18.490Z,1006.12
2019-02-05T04:19:18.460Z,1006.12
2019-02-05T04:20:18.466Z,1006.14
2019-02-05T04:21:18.499Z,1006.13
2019-02-05T04:22:18.446Z,1006.07
2019-02-05T04:23:18.413Z,1006.08
2019-02-05T04:24:18.407Z,1006.05
2019-02-05T04:25:18.392Z,1006.06
2019-02-05T04:26:18.409Z,1006.05
2019-02-05T04:27:18.379Z,1006.07
2019-02-05T04:28:18.386Z,1006.06
2019-02-05T04:29:18.346Z,1006.09
2019-02-05T04:30:18.337Z,1006.01
2019-02-05T04:31:18.328Z,1006.05
2019-02-05T04:32:18.313Z,1006.09
2019-02-05T04:33:18.341Z,1006.15
2019-02-05T04:34:18.300Z,1006.12
2019-02-05T04:35:18.289Z,1006.11
2019-02-05T04:36:18.276Z,1006.06
2019-02-05T04:37:18.259Z,1006.08
2019-02-05T04:38:18.276Z,1006.05
2019-02-05T04:39:18.241Z,1006.03
2019-02-05T04:40:18.259Z,1006.07
2019-02-05T04:41:18.219Z,1006.07
2019-02-05T04:42:18.211Z,1006.03
2019-02-05T04:43:18.218Z,1006.03
2019-02-05T04:44:18.188Z,1005.99
2019-02-05T04:45:18.178Z,1005.98
2019-02-05T04:46:18.197Z,1006.01
2019-02-05T04:47:18.152Z,1006.03
2019-02-05T04:48:18.138Z,1006.07
2019-02-05T04:49:18.129Z,1006.02
2019-02-05T04:50:18.116Z,1006.03
2019-02-05T04:51:18.129Z,1006.10
2019-02-05T04:52:18.138Z,1006.07
2019-02-05T04:53:18.086Z,1006.07
2019-02-05T04:54:18.078Z,1006.13
2019-02-05T04:55:18.085Z,1006.16
2019-02-05T04:56:18.056Z,1006.12
2019-02-05T04:57:18.047Z,1006.07
2019-02-05T04:58:18.075Z,1006.04
2019-02-05T04:59:18.017Z,1006.08
2019-02-05T05:00:18.017Z,1006.09
2019-02-05T05:01:18.066Z,1006.07
2019-02-05T05:02:17.989Z,1006.18
2019-02-05T05:03:18.004Z,1006.15
2019-02-05T05:04:17.975Z,1006.12
2019-02-05T05:05:17.953Z,1006.10
2019-02-05T05:06:17.956Z,1006.16
2019-02-05T05:07:17.956Z,1006.20
2019-02-05T05:08:17.924Z,1006.19
2019-02-05T05:09:17.910Z,1006.22
2019-02-05T05:10:17.903Z,1006.20
2019-02-05T05:11:17.887Z,1006.21
2019-02-05T05:12:17.904Z,1006.18
2019-02-05T05:13:17.868Z,1006.21
2019-02-05T05:14:17.854Z,1006.16
2019-02-05T05:15:17.998Z,1006.17
2019-02-05T05:16:17.842Z,1006.20
2019-02-05T05:17:17.828Z,1006.21
2019-02-05T05:18:17.817Z,1006.28
2019-02-05T05:19:17.802Z,1006.29
2019-02-05T05:20:17.813Z,1006.25
2019-02-05T05:21:17.778Z,1006.27
2019-02-05T05:22:17.769Z,1006.24
2019-02-05T05:23:17.771Z,1006.23
2019-02-05T05:24:17.744Z,1006.26
2019-02-05T05:25:17.775Z,1006.22
2019-02-05T05:26:17.727Z,1006.16
2019-02-05T05:27:17.715Z,1006.18
2019-02-05T05:28:17.700Z,1006.23
2019-02-05T05:29:17.695Z,1006.23
2019-02-05T05:30:17.702Z,1006.22
2019-02-05T05:31:17.669Z,1006.25
2019-02-05T05:32:17.659Z,1006.24
2019-02-05T05:33:17.678Z,1006.30
2019-02-05T05:34:17.637Z,1006.24
2019-02-05T05:35:17.632Z,1006.23
2019-02-05T05:36:17.620Z,1006.20
2019-02-05T05:37:17.603Z,1006.22
2019-02-05T05:38:17.617Z,1006.25
2019-02-05T05:39:17.582Z,1006.20
2019-02-05T05:40:17.570Z,1006.25
2019-02-05T05:41:17.564Z,1006.28
2019-02-05T05:42:17.571Z,1006.27
2019-02-05T05:43:17.549Z,1006.27
2019-02-05T05:44:17.535Z,1006.29
2019-02-05T05:45:17.516Z,1006.29
2019-02-05T05:46:17.529Z,1006.31
2019-02-05T05:47:17.527Z,1006.31
2019-02-05T05:48:17.483Z,1006.34
2019-02-05T05:49:17.499Z,1006.36
2019-02-05T05:50:20.827Z,1006.35
2019-02-05T05:51:17.463Z,1006.39
2019-02-05T05:52:17.438Z,1006.33
2019-02-05T05:53:17.481Z,1006.38
2019-02-05T05:54:17.417Z,1006.38
2019-02-05T05:55:17.404Z,1006.34
2019-02-05T05:56:17.400Z,1006.35
2019-02-05T05:57:18.762Z,1006.35
2019-02-05T05:58:23.076Z,1006.37
2019-02-05T05:59:18.366Z,1006.34
2019-02-05T06:00:17.350Z,1006.38
2019-02-05T06:01:17.339Z,1006.30
2019-02-05T06:02:17.346Z,1006.27
2019-02-05T06:03:17.321Z,1006.28
2019-02-05T06:04:17.377Z,1006.28
2019-02-05T06:05:17.306Z,1006.27
2019-02-05T06:06:17.285Z,1006.29
2019-02-05T06:07:17.276Z,1006.32
2019-02-05T06:08:17.269Z,1006.29
2019-02-05T06:09:17.282Z,1006.34
2019-02-05T06:10:17.246Z,1006.38
2019-02-05T06:11:17.240Z,1006.36
2019-02-05T06:12:17.228Z,1006.41
2019-02-05T06:13:17.217Z,1006.46
2019-02-05T06:14:17.212Z,1006.45
2019-02-05T06:15:17.208Z,1006.45
2019-02-05T06:16:17.181Z,1006.41
2019-02-05T06:17:17.167Z,1006.38
2019-02-05T06:18:17.192Z,1006.47
2019-02-05T06:19:17.143Z,1006.49
2019-02-05T06:20:17.131Z,1006.49
2019-02-05T06:21:17.121Z,1006.50
2019-02-05T06:22:17.132Z,1006.47
2019-02-05T06:23:17.101Z,1006.44
2019-02-05T06:24:17.099Z,1006.51
2019-02-05T06:25:17.083Z,1006.52
2019-02-05T06:26:20.064Z,1006.46
2019-02-05T06:27:17.060Z,1006.51
2019-02-05T06:28:17.047Z,1006.53
2019-02-05T06:29:17.033Z,1006.53
2019-02-05T06:30:17.029Z,1006.61
2019-02-05T06:31:17.041Z,1006.67
2019-02-05T06:32:17.023Z,1006.60
2019-02-05T06:33:16.993Z,1006.60
2019-02-05T06:34:16.984Z,1006.55
2019-02-05T06:35:16.972Z,1006.67
2019-02-05T06:36:16.965Z,1006.66
2019-02-05T06:37:16.979Z,1006.62
2019-02-05T06:38:16.963Z,1006.64
2019-02-05T06:39:16.928Z,1006.72
2019-02-05T06:40:16.919Z,1006.71
2019-02-05T06:41:16.905Z,1006.67
2019-02-05T06:42:16.930Z,1006.68
2019-02-05T06:43:16.886Z,1006.73
2019-02-05T06:44:16.873Z,1006.66
2019-02-05T06:45:16.862Z,1006.69
2019-02-05T06:46:16.847Z,1006.75
2019-02-05T06:47:16.867Z,1006.74
2019-02-05T06:48:16.851Z,1006.75
2019-02-05T06:49:16.839Z,1006.74
2019-02-05T06:50:16.815Z,1006.81
2019-02-05T06:51:16.794Z,1006.86
2019-02-05T06:52:16.782Z,1006.86
2019-02-05T06:53:16.783Z,1006.91
2019-02-05T06:54:16.787Z,1006.91
2019-02-05T06:55:16.750Z,1006.92
2019-02-05T06:56:16.741Z,1006.90
2019-02-05T06:57:16.732Z,1006.92
2019-02-05T06:58:16.726Z,1006.98
2019-02-05T06:59:16.727Z,1006.99
2019-02-05T07:00:16.701Z,1007.01
2019-02-05T07:01:16.687Z,1007.01
2019-02-05T07:02:16.701Z,1006.95
2019-02-05T07:03:16.687Z,1006.99
2019-02-05T07:04:16.656Z,1007.04
2019-02-05T07:05:16.796Z,1007.02
2019-02-05T07:06:16.655Z,1007.02
2019-02-05T07:07:16.621Z,1007.05
2019-02-05T07:08:16.607Z,1007.04
2019-02-05T07:09:16.597Z,1007.07
2019-02-05T07:10:16.591Z,1007.10
2019-02-05T07:11:16.597Z,1007.10
2019-02-05T07:12:16.564Z,1007.15
2019-02-05T07:13:16.571Z,1007.13
2019-02-05T07:14:16.565Z,1007.09
2019-02-05T07:15:16.530Z,1007.10
2019-02-05T07:16:16.531Z,1007.12
2019-02-05T07:17:16.508Z,1007.10
2019-02-05T07:18:16.503Z,1007.13
2019-02-05T07:19:16.515Z,1007.16
2019-02-05T07:20:16.479Z,1007.22
2019-02-05T07:21:16.490Z,1007.19
2019-02-05T07:22:16.463Z,1007.20
2019-02-05T07:23:16.446Z,1007.22
2019-02-05T07:24:16.431Z,1007.20
2019-02-05T07:25:16.446Z,1007.23
2019-02-05T07:26:16.410Z,1007.22
2019-02-05T07:27:16.399Z,1007.26
2019-02-05T07:28:16.422Z,1007.24
2019-02-05T07:29:16.383Z,1007.25
2019-02-05T07:30:16.386Z,1007.34
2019-02-05T07:31:16.357Z,1007.34
2019-02-05T07:32:16.345Z,1007.35
2019-02-05T07:33:16.334Z,1007.41
2019-02-05T07:34:16.330Z,1007.39
2019-02-05T07:35:16.343Z,1007.36
2019-02-05T07:36:16.303Z,1007.37
2019-02-05T07:37:16.291Z,1007.42
2019-02-05T07:38:16.278Z,1007.40
2019-02-05T07:39:16.291Z,1007.39
2019-02-05T07:40:16.262Z,1007.43
2019-02-05T07:41:16.246Z,1007.42
2019-02-05T07:42:16.235Z,1007.43
2019-02-05T07:43:16.224Z,1007.41
2019-02-05T07:44:16.229Z,1007.42
2019-02-05T07:45:16.225Z,1007.39
2019-02-05T07:46:16.199Z,1007.43
2019-02-05T07:47:16.186Z,1007.41
2019-02-05T07:48:16.175Z,1007.45
2019-02-05T07:49:16.162Z,1007.47
2019-02-05T07:50:16.182Z,1007.48
2019-02-05T07:51:16.138Z,1007.41
2019-02-05T07:52:16.282Z,1007.43
2019-02-05T07:53:16.114Z,1007.42
2019-02-05T07:54:16.102Z,1007.45
2019-02-05T07:55:16.121Z,1007.47
2019-02-05T07:56:16.089Z,1007.44
2019-02-05T07:57:16.215Z,1007.42
2019-02-05T07:58:16.067Z,1007.44
2019-02-05T07:59:16.051Z,1007.45
2019-02-05T08:00:16.073Z,1007.43
2019-02-05T08:01:17.662Z,1007.48
2019-02-05T08:02:16.015Z,1007.49
2019-02-05T08:03:16.034Z,1007.54
2019-02-05T08:04:16.015Z,1007.52
2019-02-05T08:05:15.982Z,1007.53
2019-02-05T08:06:15.995Z,1007.62
2019-02-05T08:07:15.966Z,1007.60
2019-02-05T08:08:15.953Z,1007.62
2019-02-05T08:09:15.945Z,1007.63
2019-02-05T08:10:15.956Z,1007.63
2019-02-05T08:11:15.938Z,1007.58
2019-02-05T08:12:15.907Z,1007.52
2019-02-05T08:13:15.895Z,1007.58
2019-02-05T08:14:15.885Z,1007.56
2019-02-05T08:15:15.877Z,1007.54
2019-02-05T08:16:15.897Z,1007.50
2019-02-05T08:17:15.853Z,1007.44
2019-02-05T08:18:15.839Z,1007.47
2019-02-05T08:19:15.829Z,1007.50
2019-02-05T08:20:15.849Z,1007.47
2019-02-05T08:21:15.911Z,1007.50
2019-02-05T08:22:15.934Z,1007.55
2019-02-05T08:23:15.792Z,1007.59
2019-02-05T08:24:15.779Z,1007.59
2019-02-05T08:25:15.785Z,1007.61
2019-02-05T08:26:15.752Z,1007.57
2019-02-05T08:27:15.742Z,1007.54
2019-02-05T08:28:15.737Z,1007.54
2019-02-05T08:29:21.663Z,1007.55
2019-02-05T08:30:16.711Z,1007.53
2019-02-05T08:31:15.697Z,1007.56
2019-02-05T08:32:15.713Z,1007.57
2019-02-05T08:33:36.680Z,1007.57
2019-02-05T08:34:15.686Z,1007.62
2019-02-05T08:35:15.656Z,1007.63
2019-02-05T08:36:15.641Z,1007.63
2019-02-05T08:37:15.641Z,1007.68
2019-02-05T08:38:15.641Z,1007.68
2019-02-05T08:39:17.882Z,1007.75
2019-02-05T08:40:15.600Z,1007.77
2019-02-05T08:41:15.606Z,1007.75
2019-02-05T08:42:15.578Z,1007.78
2019-02-05T08:43:15.589Z,1007.81
2019-02-05T08:44:15.559Z,1007.76
2019-02-05T08:45:15.551Z,1007.76
2019-02-05T08:46:15.558Z,1007.79
2019-02-05T08:47:15.522Z,1007.80
2019-02-05T08:48:15.508Z,1007.75
2019-02-05T08:49:15.501Z,1007.82
2019-02-05T08:50:15.486Z,1007.85
2019-02-05T08:51:15.507Z,1007.85
2019-02-05T08:52:15.480Z,1007.84
2019-02-05T08:53:15.453Z,1007.85
2019-02-05T08:54:15.443Z,1007.86
2019-02-05T08:55:15.455Z,1007.86
2019-02-05T08:56:15.446Z,1007.88
2019-02-05T08:57:16.002Z,1007.91
2019-02-05T08:58:15.401Z,1007.90
2019-02-05T08:59:15.388Z,1007.87
2019-02-05T09:00:15.376Z,1007.88
2019-02-05T09:01:15.386Z,1007.89
2019-02-05T09:02:15.358Z,1007.90
2019-02-05T09:03:15.360Z,1007.89
2019-02-05T09:04:15.337Z,1007.90
2019-02-05T09:05:15.323Z,1007.92
2019-02-05T09:06:15.337Z,1007.92
2019-02-05T09:07:15.322Z,1007.91
2019-02-05T09:08:15.316Z,1007.82
2019-02-05T09:09:15.282Z,1007.84
2019-02-05T09:10:15.290Z,1007.85
2019-02-05T09:11:15.255Z,1007.87
2019-02-05T09:12:17.961Z,1007.86
2019-02-05T09:13:15.257Z,1007.89
2019-02-05T09:14:15.221Z,1007.86
2019-02-05T09:15:15.211Z,1007.87
2019-02-05T09:16:15.236Z,1007.90
2019-02-05T09:17:15.203Z,1007.96
2019-02-05T09:18:15.180Z,1007.97
2019-02-05T09:19:15.193Z,1007.98
2019-02-05T09:20:15.173Z,1008.06
2019-02-05T09:21:15.144Z,1008.05
2019-02-05T09:22:15.144Z,1008.09
2019-02-05T09:23:15.123Z,1008.15
2019-02-05T09:24:15.137Z,1008.15
2019-02-05T09:25:15.126Z,1008.20
2019-02-05T09:26:15.091Z,1008.16
2019-02-05T09:27:15.101Z,1008.18
2019-02-05T09:28:15.078Z,1008.18
2019-02-05T09:29:15.056Z,1008.22
2019-02-05T09:30:15.051Z,1008.20
2019-02-05T09:31:15.056Z,1008.26
2019-02-05T09:32:15.045Z,1008.19
2019-02-05T09:33:15.018Z,1008.25
2019-02-05T09:34:15.015Z,1008.25
2019-02-05T09:35:14.990Z,1008.24
2019-02-05T09:36:14.981Z,1008.22
2019-02-05T09:37:14.983Z,1008.20
2019-02-05T09:38:14.956Z,1008.22
2019-02-05T09:39:14.947Z,1008.22
2019-02-05T09:40:14.950Z,1008.22
2019-02-05T09:41:14.926Z,1008.23
2019-02-05T09:42:14.926Z,1008.27
2019-02-05T09:43:14.902Z,1008.27
2019-02-05T09:44:14.890Z,1008.27
2019-02-05T09:45:14.882Z,1008.28
2019-02-05T09:46:14.899Z,1008.34
2019-02-05T09:47:14.906Z,1008.34
2019-02-05T09:48:14.848Z,1008.34
2019-02-05T09:49:14.836Z,1008.32
2019-02-05T09:50:14.824Z,1008.38
2019-02-05T09:51:14.816Z,1008.31
2019-02-05T09:52:14.838Z,1008.35
2019-02-05T09:53:14.791Z,1008.36
2019-02-05T09:54:14.783Z,1008.35
2019-02-05T09:55:14.769Z,1008.38
2019-02-05T09:56:14.777Z,1008.41
2019-02-05T09:57:15.146Z,1008.40
2019-02-05T09:58:14.748Z,1008.41
2019-02-05T09:59:14.727Z,1008.45
2019-02-05T10:00:14.718Z,1008.46
2019-02-05T10:01:14.705Z,1008.49
2019-02-05T10:02:14.716Z,1008.50
2019-02-05T10:03:14.683Z,1008.50
2019-02-05T10:04:14.679Z,1008.50
2019-02-05T10:05:14.694Z,1008.53
2019-02-05T10:06:14.654Z,1008.57
2019-02-05T10:07:14.636Z,1008.60
2019-02-05T10:08:14.631Z,1008.62
2019-02-05T10:09:14.614Z,1008.57
2019-02-05T10:10:14.637Z,1008.62
2019-02-05T10:11:14.604Z,1008.61
2019-02-05T10:12:14.617Z,1008.61
2019-02-05T10:13:14.570Z,1008.62
2019-02-05T10:14:14.559Z,1008.62
2019-02-05T10:15:14.547Z,1008.60
2019-02-05T10:16:14.542Z,1008.63
2019-02-05T10:17:14.549Z,1008.64
2019-02-05T10:18:14.543Z,1008.60
2019-02-05T10:19:14.508Z,1008.61
2019-02-05T10:20:14.495Z,1008.58
2019-02-05T10:21:14.516Z,1008.56
2019-02-05T10:22:14.487Z,1008.48
2019-02-05T10:23:14.463Z,1008.50
2019-02-05T10:24:14.450Z,1008.61
2019-02-05T10:25:14.437Z,1008.55
2019-02-05T10:26:14.449Z,1008.50
2019-02-05T10:27:14.419Z,1008.52
2019-02-05T10:28:14.418Z,1008.50
2019-02-05T10:29:14.397Z,1008.50
2019-02-05T10:30:14.411Z,1008.55
2019-02-05T10:31:14.375Z,1008.56
2019-02-05T10:32:14.360Z,1008.51
2019-02-05T10:33:14.348Z,1008.55
2019-02-05T10:34:14.375Z,1008.58
2019-02-05T10:35:14.326Z,1008.56
2019-02-05T10:36:14.319Z,1008.57
2019-02-05T10:37:14.305Z,1008.57
2019-02-05T10:38:14.316Z,1008.54
2019-02-05T10:39:14.285Z,1008.58
2019-02-05T10:40:14.293Z,1008.48
2019-02-05T10:41:14.260Z,1008.50
2019-02-05T10:42:14.250Z,1008.53
2019-02-05T10:43:14.260Z,1008.58
2019-02-05T10:44:14.231Z,1008.54
2019-02-05T10:45:14.219Z,1008.53
2019-02-05T10:46:14.238Z,1008.53
2019-02-05T10:47:14.198Z,1008.56
2019-02-05T10:48:14.225Z,1008.50
2019-02-05T10:49:14.172Z,1008.56
2019-02-05T10:50:14.161Z,1008.62
2019-02-05T10:51:14.151Z,1008.59
2019-02-05T10:52:14.149Z,1008.57
2019-02-05T10:53:14.154Z,1008.55
2019-02-05T10:54:14.146Z,1008.56
2019-02-05T10:55:14.105Z,1008.56
2019-02-05T10:56:14.146Z,1008.59
2019-02-05T10:57:14.088Z,1008.57
2019-02-05T10:58:14.079Z,1008.60
2019-02-05T10:59:14.063Z,1008.62
2019-02-05T11:00:14.054Z,1008.57
2019-02-05T11:01:14.065Z,1008.59
2019-02-05T11:02:14.028Z,1008.58
2019-02-05T11:03:14.046Z,1008.61
2019-02-05T11:04:14.015Z,1008.59
2019-02-05T11:05:13.995Z,1008.61
2019-02-05T11:06:13.988Z,1008.56
2019-02-05T11:07:13.973Z,1008.56
2019-02-05T11:08:13.987Z,1008.53
2019-02-05T11:09:13.954Z,1008.54
2019-02-05T11:10:13.948Z,1008.53
2019-02-05T11:11:13.932Z,1008.51
2019-02-05T11:12:13.940Z,1008.53
2019-02-05T11:13:13.909Z,1008.48
2019-02-05T11:14:13.914Z,1008.50
2019-02-05T11:15:13.885Z,1008.50
2019-02-05T11:16:13.885Z,1008.54
2019-02-05T11:17:13.891Z,1008.52
2019-02-05T11:18:13.879Z,1008.53
2019-02-05T11:19:13.841Z,1008.46
2019-02-05T11:20:13.830Z,1008.53
2019-02-05T11:21:13.843Z,1008.51
2019-02-05T11:22:13.813Z,1008.52
2019-02-05T11:23:13.796Z,1008.51
2019-02-05T11:24:13.785Z,1008.48
2019-02-05T11:25:13.773Z,1008.46
2019-02-05T11:26:13.804Z,1008.42
2019-02-05T11:27:13.752Z,1008.42
2019-02-05T11:28:13.748Z,1008.42
2019-02-05T11:29:13.733Z,1008.39
2019-02-05T11:30:20.305Z,1008.40
2019-02-05T11:31:14.732Z,1008.40
2019-02-05T11:32:13.698Z,1008.43
2019-02-05T11:33:13.687Z,1008.39
2019-02-05T11:34:13.683Z,1008.42
2019-02-05T11:35:13.666Z,1008.41
2019-02-05T11:36:13.667Z,1008.41
2019-02-05T11:37:13.641Z,1008.38
2019-02-05T11:38:13.648Z,1008.39
2019-02-05T11:39:13.642Z,1008.39
2019-02-05T11:40:13.618Z,1008.40
2019-02-05T11:41:13.860Z,1008.41
2019-02-05T11:42:13.588Z,1008.43
2019-02-05T11:43:13.600Z,1008.41
2019-02-05T11:44:13.567Z,1008.42
2019-02-05T11:45:13.560Z,1008.38
2019-02-05T11:46:13.562Z,1008.41
2019-02-05T11:47:13.535Z,1008.40
2019-02-05T11:48:13.544Z,1008.35
2019-02-05T11:49:13.535Z,1008.34
2019-02-05T11:50:13.500Z,1008.34
2019-02-05T11:51:13.539Z,1008.27
2019-02-05T11:52:13.490Z,1008.31
2019-02-05T11:53:13.468Z,1008.29
2019-02-05T11:54:13.478Z,1008.24
2019-02-05T11:55:13.448Z,1008.28
2019-02-05T11:56:13.435Z,1008.28
2019-02-05T11:57:13.425Z,1008.31
2019-02-05T11:58:13.418Z,1008.28
2019-02-05T11:59:13.422Z,1008.26
2019-02-05T12:00:13.412Z,1008.26
2019-02-05T12:01:13.404Z,1008.27
2019-02-05T12:02:13.367Z,1008.29
2019-02-05T12:03:13.356Z,1008.28
2019-02-05T12:04:13.351Z,1008.28
2019-02-05T12:05:13.333Z,1008.25